Time,TemperatureF,DewpointF,PressureIn,WindDirection,WindDirectionDegrees,WindSpeedMPH,WindSpeedGustMPH,Humidity,HourlyPrecipIn,Conditions,Clouds,dailyrainin,SoftwareType,DateUTC
2013-02-09 00:00:00,19.3,19.3,0.00,NNW,335,16.8,16.8,100,0.00,OVC,OVC,0.63,WeatherDisplay:10.37,2013-02-09 05:00:00,
2013-02-09 00:01:00,19.3,19.3,0.00,NE,34,17.3,17.3,100,0.00,OVC,OVC,0.00,WeatherDisplay:10.37,2013-02-09 05:01:00,
2013-02-09 00:04:00,19.3,19.3,0.00,North,360,17.3,17.3,100,0.00,CLR,CLR,0.00,WeatherDisplay:10.37,2013-02-09 05:04:00,
2013-02-09 00:09:00,19.2,19.2,0.00,NNE,17,16.1,16.1,100,0.00,CLR,CLR,0.00,WeatherDisplay:10.37,2013-02-09 05:09:00,
2013-02-09 00:14:00,19.2,19.2,0.00,East,89,16.1,16.1,100,0.00,CLR,CLR,0.00,WeatherDisplay:10.37,2013-02-09 05:14:00,
2013-02-09 00:19:00,19.2,19.2,0.00,NE,37,16.1,16.1,100,0.00,CLR,CLR,0.00,WeatherDisplay:10.37,2013-02-09 05:19:00,
2013-02-09 00:25:00,19.1,19.1,0.00,NNW,342,18.4,18.4,100,0.00,CLR,CLR,0.00,WeatherDisplay:10.37,2013-02-09 05:25:00,
2013-02-09 00:30:00,19.1,19.1,0.00,NW,322,19.6,19.6,100,0.00,CLR,CLR,0.00,WeatherDisplay:10.37,2013-02-09 05:30:00,
2013-02-09 00:35:00,19.0,19.0,0.00,WNW,294,19.6,19.6,100,0.00,CLR,CLR,0.00,WeatherDisplay:10.37,2013-02-09 05:35:00,
2013-02-09 00:40:00,18.9,18.9,0.00,NNE,13,17.3,17.3,100,0.00,CLR,CLR,0.00,WeatherDisplay:10.37,2013-02-09 05:40:00,
2013-02-09 00:45:00,18.9,18.9,0.00,NE,54,18.4,18.4,100,0.00,CLR,CLR,0.00,WeatherDisplay:10.37,2013-02-09 05:45:00,
2013-02-09 00:50:00,18.8,18.8,0.00,North,359,18.4,18.4,100,0.00,CLR,CLR,0.00,WeatherDisplay:10.37,2013-02-09 05:50:00,
2013-02-09 00:55:00,18.7,18.7,0.00,North,1,12.7,12.7,100,0.00,CLR,CLR,0.00,WeatherDisplay:10.37,2013-02-09 05:55:00,
2013-02-09 01:01:00,18.7,18.7,0.00,North,6,19.6,19.6,100,0.00,CLR,CLR,0.00,WeatherDisplay:10.37,2013-02-09 06:01:00,
2013-02-09 01:06:00,18.6,18.6,0.00,WNW,302,16.1,16.1,100,0.00,CLR,CLR,0.00,WeatherDisplay:10.37,2013-02-09 06:06:00,
2013-02-09 01:11:00,18.6,18.6,0.00,North,1,16.1,16.1,100,0.00,CLR,CLR,0.00,WeatherDisplay:10.37,2013-02-09 06:11:00,
2013-02-09 01:16:00,18.5,18.5,0.00,North,360,29.9,29.9,100,0.00,CLR,CLR,0.00,WeatherDisplay:10.37,2013-02-09 06:16:00,
2013-02-09 01:21:00,18.4,18.4,0.00,NNE,17,16.1,16.1,100,0.01,RA,RA,0.01,WeatherDisplay:10.37,2013-02-09 06:21:00,
2013-02-09 01:26:00,18.5,18.5,0.00,North,356,16.1,16.1,100,0.01,RA,RA,0.01,WeatherDisplay:10.37,2013-02-09 06:26:00,
2013-02-09 01:31:00,18.4,18.4,0.00,NNE,32,14.5,14.5,100,0.01,CLR,CLR,0.01,WeatherDisplay:10.37,2013-02-09 06:31:00,
2013-02-09 01:36:00,18.4,18.4,0.00,West,278,20.7,20.7,100,0.01,CLR,CLR,0.01,WeatherDisplay:10.37,2013-02-09 06:36:00,
2013-02-09 01:42:00,18.4,18.4,0.00,WNW,285,12.7,12.7,100,0.01,CLR,CLR,0.01,WeatherDisplay:10.37,2013-02-09 06:42:00,
2013-02-09 01:47:00,18.4,18.4,0.00,NNE,13,12.7,12.7,100,0.01,CLR,CLR,0.01,WeatherDisplay:10.37,2013-02-09 06:47:00,
2013-02-09 01:52:00,18.4,18.4,0.00,WSW,256,15.0,15.0,100,0.01,CLR,CLR,0.01,WeatherDisplay:10.37,2013-02-09 06:52:00,
2013-02-09 01:57:00,18.2,18.2,0.00,NE,49,9.2,9.2,100,0.01,CLR,CLR,0.01,WeatherDisplay:10.37,2013-02-09 06:57:00,
2013-02-09 02:02:00,18.3,18.3,0.00,North,360,16.1,16.1,100,0.01,CLR,CLR,0.01,WeatherDisplay:10.37,2013-02-09 07:02:00,
2013-02-09 02:08:00,18.2,18.2,0.00,NW,318,9.2,9.2,100,0.01,CLR,CLR,0.01,WeatherDisplay:10.37,2013-02-09 07:08:00,
2013-02-09 02:13:00,18.2,18.2,0.00,NNW,344,9.2,9.2,100,0.01,CLR,CLR,0.01,WeatherDisplay:10.37,2013-02-09 07:13:00,
2013-02-09 02:18:00,18.1,18.1,0.00,NW,315,18.4,18.4,100,0.00,CLR,CLR,0.01,WeatherDisplay:10.37,2013-02-09 07:18:00,
2013-02-09 02:23:00,18.1,18.1,0.00,NW,325,10.4,10.4,100,0.00,CLR,CLR,0.01,WeatherDisplay:10.37,2013-02-09 07:23:00,
2013-02-09 02:28:00,18.1,18.1,0.00,East,88,18.4,18.4,100,0.00,CLR,CLR,0.01,WeatherDisplay:10.37,2013-02-09 07:28:00,
2013-02-09 02:33:00,18.1,18.1,0.00,NW,320,11.5,11.5,100,0.00,CLR,CLR,0.01,WeatherDisplay:10.37,2013-02-09 07:33:00,
2013-02-09 02:38:00,18.1,18.1,0.00,NNW,329,11.9,11.9,100,0.00,CLR,CLR,0.01,WeatherDisplay:10.37,2013-02-09 07:38:00,
2013-02-09 02:43:00,18.1,18.1,0.00,NNW,330,18.4,18.4,100,0.00,CLR,CLR,0.01,WeatherDisplay:10.37,2013-02-09 07:43:00,
2013-02-09 02:49:00,18.1,18.1,0.00,NNW,337,15.0,15.0,100,0.00,CLR,CLR,0.01,WeatherDisplay:10.37,2013-02-09 07:49:00,
2013-02-09 02:54:00,18.1,18.1,0.00,WNW,291,14.3,14.3,100,0.00,CLR,CLR,0.01,WeatherDisplay:10.37,2013-02-09 07:54:00,
2013-02-09 02:59:00,18.2,18.2,0.00,NNE,32,11.5,11.5,100,0.00,CLR,CLR,0.01,WeatherDisplay:10.37,2013-02-09 07:59:00,
2013-02-09 03:04:00,18.3,18.3,0.00,NW,305,12.7,12.7,100,0.00,CLR,CLR,0.01,WeatherDisplay:10.37,2013-02-09 08:04:00,
2013-02-09 03:09:00,18.2,18.2,0.00,North,7,10.4,10.4,100,0.00,CLR,CLR,0.01,WeatherDisplay:10.37,2013-02-09 08:09:00,
2013-02-09 03:14:00,18.3,18.3,0.00,WNW,287,11.5,11.5,100,0.00,CLR,CLR,0.01,WeatherDisplay:10.37,2013-02-09 08:14:00,
2013-02-09 03:19:00,18.3,18.3,0.00,NNW,342,13.8,13.8,100,0.00,CLR,CLR,0.01,WeatherDisplay:10.37,2013-02-09 08:19:00,
2013-02-09 03:25:00,18.3,18.3,0.00,WNW,287,16.1,16.1,100,0.00,CLR,CLR,0.01,WeatherDisplay:10.37,2013-02-09 08:25:00,
2013-02-09 03:30:00,18.4,18.4,0.00,NNW,342,13.8,13.8,100,0.00,CLR,CLR,0.01,WeatherDisplay:10.37,2013-02-09 08:30:00,
2013-02-09 03:35:00,18.4,18.4,0.00,NW,306,17.3,17.3,100,0.00,CLR,CLR,0.01,WeatherDisplay:10.37,2013-02-09 08:35:00,
2013-02-09 03:40:00,18.4,18.4,0.00,North,352,13.0,13.0,100,0.00,CLR,CLR,0.01,WeatherDisplay:10.37,2013-02-09 08:40:00,
2013-02-09 03:45:00,18.4,18.4,0.00,North,360,9.2,9.2,100,0.00,CLR,CLR,0.01,WeatherDisplay:10.37,2013-02-09 08:45:00,
2013-02-09 03:50:00,18.6,18.6,0.00,North,360,11.5,11.5,100,0.00,CLR,CLR,0.01,WeatherDisplay:10.37,2013-02-09 08:50:00,
2013-02-09 03:55:00,18.6,18.6,0.00,North,360,13.8,13.8,100,0.00,CLR,CLR,0.01,WeatherDisplay:10.37,2013-02-09 08:55:00,
2013-02-09 04:00:00,18.6,18.6,0.00,NNW,343,16.1,16.1,100,0.00,CLR,CLR,0.01,WeatherDisplay:10.37,2013-02-09 09:00:00,
2013-02-09 04:06:00,18.7,18.7,0.00,North,360,12.7,12.7,100,0.00,CLR,CLR,0.01,WeatherDisplay:10.37,2013-02-09 09:06:00,
2013-02-09 04:11:00,18.8,18.8,0.00,NW,318,12.7,12.7,100,0.00,CLR,CLR,0.01,WeatherDisplay:10.37,2013-02-09 09:11:00,
2013-02-09 04:16:00,18.8,18.8,0.00,NE,38,11.5,11.5,100,0.00,CLR,CLR,0.01,WeatherDisplay:10.37,2013-02-09 09:16:00,
2013-02-09 04:21:00,18.8,18.8,0.00,NNW,344,15.0,15.0,100,0.00,CLR,CLR,0.01,WeatherDisplay:10.37,2013-02-09 09:21:00,
2013-02-09 04:26:00,19.0,19.0,0.00,NNW,336,16.1,16.1,100,0.00,CLR,CLR,0.01,WeatherDisplay:10.37,2013-02-09 09:26:00,
2013-02-09 04:31:00,19.1,19.1,0.00,WNW,285,13.8,13.8,100,0.00,CLR,CLR,0.01,WeatherDisplay:10.37,2013-02-09 09:31:00,
2013-02-09 04:36:00,19.3,19.3,0.00,NW,308,15.0,15.0,100,0.00,CLR,CLR,0.01,WeatherDisplay:10.37,2013-02-09 09:36:00,
2013-02-09 04:42:00,19.4,19.4,0.00,North,352,11.5,11.5,100,0.00,CLR,CLR,0.01,WeatherDisplay:10.37,2013-02-09 09:42:00,
2013-02-09 04:47:00,19.5,19.5,0.00,NNW,340,20.7,20.7,100,0.00,CLR,CLR,0.01,WeatherDisplay:10.37,2013-02-09 09:47:00,
2013-02-09 04:52:00,19.6,19.6,0.00,NW,316,20.7,20.7,100,0.00,CLR,CLR,0.01,WeatherDisplay:10.37,2013-02-09 09:52:00,
2013-02-09 04:57:00,19.7,19.7,0.00,NW,304,13.8,13.8,100,0.00,CLR,CLR,0.01,WeatherDisplay:10.37,2013-02-09 09:57:00,
2013-02-09 05:02:00,19.9,19.9,0.00,West,263,13.2,13.2,100,0.00,CLR,CLR,0.01,WeatherDisplay:10.37,2013-02-09 10:02:00,
2013-02-09 05:07:00,20.0,20.0,0.00,NNW,339,11.4,11.4,100,0.00,CLR,CLR,0.01,WeatherDisplay:10.37,2013-02-09 10:07:00,
2013-02-09 05:12:00,20.1,20.1,0.00,NNW,336,24.2,24.2,100,0.00,CLR,CLR,0.01,WeatherDisplay:10.37,2013-02-09 10:12:00,
2013-02-09 05:17:00,20.3,20.3,0.00,WNW,295,11.5,11.5,100,0.00,CLR,CLR,0.01,WeatherDisplay:10.37,2013-02-09 10:17:00,
2013-02-09 05:23:00,20.4,20.4,0.00,NW,323,9.2,9.2,100,0.00,CLR,CLR,0.01,WeatherDisplay:10.37,2013-02-09 10:23:00,
2013-02-09 05:28:00,20.5,20.5,0.00,NW,326,9.2,9.2,100,0.00,CLR,CLR,0.01,WeatherDisplay:10.37,2013-02-09 10:28:00,
2013-02-09 05:33:00,20.5,20.5,0.00,West,277,19.6,19.6,100,0.00,CLR,CLR,0.01,WeatherDisplay:10.37,2013-02-09 10:33:00,
2013-02-09 05:38:00,20.6,20.6,0.00,WNW,295,11.5,11.5,100,0.00,CLR,CLR,0.01,WeatherDisplay:10.37,2013-02-09 10:38:00,
2013-02-09 05:43:00,20.7,20.7,0.00,West,281,17.8,17.8,100,0.00,CLR,CLR,0.01,WeatherDisplay:10.37,2013-02-09 10:43:00,
2013-02-09 05:48:00,20.9,20.9,0.00,North,360,16.1,16.1,100,0.00,CLR,CLR,0.01,WeatherDisplay:10.37,2013-02-09 10:48:00,
2013-02-09 05:53:00,20.9,20.9,0.00,NNW,343,11.8,11.8,100,0.00,CLR,CLR,0.01,WeatherDisplay:10.37,2013-02-09 10:53:00,
2013-02-09 05:59:00,21.0,21.0,0.00,WNW,294,11.5,11.5,100,0.00,CLR,CLR,0.01,WeatherDisplay:10.37,2013-02-09 10:59:00,
2013-02-09 06:04:00,21.0,21.0,0.00,NNW,344,17.3,17.3,100,0.00,CLR,CLR,0.01,WeatherDisplay:10.37,2013-02-09 11:04:00,
2013-02-09 06:09:00,21.1,21.1,0.00,West,281,17.3,17.3,100,0.00,CLR,CLR,0.01,WeatherDisplay:10.37,2013-02-09 11:09:00,
2013-02-09 06:14:00,21.3,21.3,0.00,WNW,285,21.1,21.1,100,0.00,CLR,CLR,0.01,WeatherDisplay:10.37,2013-02-09 11:14:00,
2013-02-09 06:19:00,21.4,21.4,0.00,NW,305,11.5,11.5,100,0.00,CLR,CLR,0.01,WeatherDisplay:10.37,2013-02-09 11:19:00,
2013-02-09 06:24:00,21.4,21.4,0.00,NW,313,14.4,14.4,100,0.00,CLR,CLR,0.01,WeatherDisplay:10.37,2013-02-09 11:24:00,
2013-02-09 06:29:00,21.5,21.5,0.00,WNW,302,19.6,19.6,100,0.00,CLR,CLR,0.01,WeatherDisplay:10.37,2013-02-09 11:29:00,
2013-02-09 06:34:00,21.5,21.5,0.00,West,264,19.6,19.6,100,0.00,CLR,CLR,0.01,WeatherDisplay:10.37,2013-02-09 11:34:00,
2013-02-09 06:40:00,21.4,21.4,0.00,WNW,288,13.8,13.8,100,0.00,CLR,CLR,0.01,WeatherDisplay:10.37,2013-02-09 11:40:00,
2013-02-09 06:45:00,21.5,21.5,0.00,NNW,343,9.2,9.2,100,0.00,CLR,CLR,0.01,WeatherDisplay:10.37,2013-02-09 11:45:00,
2013-02-09 06:50:00,21.5,21.5,0.00,West,277,12.7,12.7,100,0.00,CLR,CLR,0.01,WeatherDisplay:10.37,2013-02-09 11:50:00,
2013-02-09 06:55:00,21.5,21.5,0.00,West,272,13.8,13.8,100,0.00,CLR,CLR,0.01,WeatherDisplay:10.37,2013-02-09 11:55:00,
2013-02-09 07:00:00,21.5,21.5,0.00,WNW,295,11.5,11.5,100,0.00,CLR,CLR,0.01,WeatherDisplay:10.37,2013-02-09 12:00:00,
2013-02-09 07:05:00,21.4,21.4,0.00,NW,306,12.7,12.7,100,0.00,CLR,CLR,0.01,WeatherDisplay:10.37,2013-02-09 12:05:00,
2013-02-09 07:10:00,21.4,21.4,0.00,WNW,302,13.8,13.8,100,0.00,CLR,CLR,0.01,WeatherDisplay:10.37,2013-02-09 12:10:00,
2013-02-09 07:16:00,21.5,21.5,0.00,NNW,336,13.8,13.8,100,0.00,CLR,CLR,0.01,WeatherDisplay:10.37,2013-02-09 12:16:00,
2013-02-09 07:21:00,21.6,21.6,0.00,WNW,287,17.3,17.3,100,0.00,CLR,CLR,0.01,WeatherDisplay:10.37,2013-02-09 12:21:00,
2013-02-09 07:26:00,21.6,21.6,0.00,NNW,329,13.8,13.8,100,0.00,CLR,CLR,0.01,WeatherDisplay:10.37,2013-02-09 12:26:00,
2013-02-09 07:31:00,21.6,21.6,0.00,WNW,296,18.4,18.4,100,0.00,CLR,CLR,0.01,WeatherDisplay:10.37,2013-02-09 12:31:00,
2013-02-09 07:36:00,21.7,21.7,0.00,WNW,296,13.8,13.8,100,0.00,CLR,CLR,0.01,WeatherDisplay:10.37,2013-02-09 12:36:00,
2013-02-09 07:41:00,21.7,21.7,0.00,NW,304,19.6,19.6,100,0.00,CLR,CLR,0.01,WeatherDisplay:10.37,2013-02-09 12:41:00,
2013-02-09 07:46:00,21.8,21.8,0.00,NW,308,15.0,15.0,100,0.00,CLR,CLR,0.01,WeatherDisplay:10.37,2013-02-09 12:46:00,
2013-02-09 07:51:00,21.9,21.9,0.00,NW,318,10.4,10.4,100,0.00,CLR,CLR,0.01,WeatherDisplay:10.37,2013-02-09 12:51:00,
2013-02-09 07:57:00,21.9,21.9,0.00,WNW,295,10.4,10.4,100,0.00,CLR,CLR,0.01,WeatherDisplay:10.37,2013-02-09 12:57:00,
2013-02-09 08:02:00,22.0,22.0,0.00,NNW,333,10.4,10.4,100,0.00,CLR,CLR,0.01,WeatherDisplay:10.37,2013-02-09 13:02:00,
2013-02-09 08:07:00,22.0,22.0,0.00,West,272,16.1,16.1,100,0.00,CLR,CLR,0.01,WeatherDisplay:10.37,2013-02-09 13:07:00,
2013-02-09 08:12:00,22.0,22.0,0.00,NNW,333,11.5,11.5,100,0.00,CLR,CLR,0.01,WeatherDisplay:10.37,2013-02-09 13:12:00,
2013-02-09 08:17:00,22.0,22.0,0.00,NNE,28,10.4,10.4,100,0.00,CLR,CLR,0.01,WeatherDisplay:10.37,2013-02-09 13:17:00,
2013-02-09 08:22:00,22.0,22.0,0.00,WNW,302,12.7,12.7,100,0.00,CLR,CLR,0.01,WeatherDisplay:10.37,2013-02-09 13:22:00,
2013-02-09 08:28:00,22.0,22.0,0.00,West,267,12.7,12.7,100,0.00,CLR,CLR,0.01,WeatherDisplay:10.37,2013-02-09 13:28:00,
2013-02-09 08:33:00,21.9,21.9,0.00,West,274,8.1,8.1,100,0.00,CLR,CLR,0.01,WeatherDisplay:10.37,2013-02-09 13:33:00,
2013-02-09 08:38:00,21.8,21.8,0.00,WNW,301,15.0,15.0,100,0.00,CLR,CLR,0.01,WeatherDisplay:10.37,2013-02-09 13:38:00,
2013-02-09 08:43:00,21.7,21.7,0.00,NW,326,12.7,12.7,100,0.00,CLR,CLR,0.01,WeatherDisplay:10.37,2013-02-09 13:43:00,
2013-02-09 08:48:00,21.7,21.7,0.00,WNW,289,17.3,17.3,100,0.00,CLR,CLR,0.01,WeatherDisplay:10.37,2013-02-09 13:48:00,
2013-02-09 08:53:00,21.6,21.6,0.00,NW,306,12.7,12.7,100,0.00,CLR,CLR,0.01,WeatherDisplay:10.37,2013-02-09 13:53:00,
2013-02-09 08:58:00,21.6,21.6,0.00,WNW,287,13.8,13.8,100,0.00,CLR,CLR,0.01,WeatherDisplay:10.37,2013-02-09 13:58:00,
2013-02-09 09:03:00,21.6,21.6,0.00,West,278,13.2,13.2,100,0.00,CLR,CLR,0.01,WeatherDisplay:10.37,2013-02-09 14:03:00,
2013-02-09 09:08:00,21.6,21.4,0.00,NW,311,8.8,8.8,99,0.00,CLR,CLR,0.01,WeatherDisplay:10.37,2013-02-09 14:08:00,
2013-02-09 09:14:00,21.6,21.4,0.00,NW,313,13.8,13.8,99,0.00,CLR,CLR,0.01,WeatherDisplay:10.37,2013-02-09 14:14:00,
2013-02-09 09:19:00,21.5,21.3,0.00,WNW,289,11.1,11.1,99,0.00,CLR,CLR,0.01,WeatherDisplay:10.37,2013-02-09 14:19:00,
2013-02-09 09:24:00,21.5,21.3,0.00,West,267,9.5,9.5,99,0.00,CLR,CLR,0.01,WeatherDisplay:10.37,2013-02-09 14:24:00,
2013-02-09 09:29:00,21.5,21.3,0.00,WNW,289,10.4,10.4,99,0.00,CLR,CLR,0.01,WeatherDisplay:10.37,2013-02-09 14:29:00,
2013-02-09 09:34:00,21.4,21.2,0.00,NW,318,15.0,15.0,99,0.00,CLR,CLR,0.01,WeatherDisplay:10.37,2013-02-09 14:34:00,
2013-02-09 09:39:00,21.3,21.1,0.00,WNW,289,15.0,15.0,99,0.00,CLR,CLR,0.01,WeatherDisplay:10.37,2013-02-09 14:39:00,
2013-02-09 09:44:00,21.2,21.0,0.00,WNW,292,15.0,15.0,99,0.00,CLR,CLR,0.01,WeatherDisplay:10.37,2013-02-09 14:44:00,
2013-02-09 09:50:00,21.1,20.9,0.00,NNE,30,11.5,11.5,99,0.00,CLR,CLR,0.01,WeatherDisplay:10.37,2013-02-09 14:50:00,
2013-02-09 09:55:00,21.0,20.8,0.00,WNW,299,11.5,11.5,99,0.00,CLR,CLR,0.01,WeatherDisplay:10.37,2013-02-09 14:55:00,
2013-02-09 10:00:00,21.0,20.5,0.00,West,277,20.7,20.7,98,0.00,CLR,CLR,0.01,WeatherDisplay:10.37,2013-02-09 15:00:00,
2013-02-09 10:05:00,20.9,20.4,0.00,West,272,19.6,19.6,98,0.00,SCT,SCT,0.01,WeatherDisplay:10.37,2013-02-09 15:05:00,
2013-02-09 10:10:00,20.9,20.4,0.00,NNW,328,13.8,13.8,98,0.00,SCT,SCT,0.01,WeatherDisplay:10.37,2013-02-09 15:10:00,
2013-02-09 10:15:00,21.0,20.5,0.00,NW,304,7.0,20.0,98,0.00,SCT,SCT,0.01,WeatherDisplay:10.37,2013-02-09 15:15:00,
2013-02-09 10:20:00,21.1,20.6,0.00,WNW,288,11.3,11.3,98,0.00,SCT,SCT,0.01,WeatherDisplay:10.37,2013-02-09 15:20:00,
2013-02-09 10:25:00,21.3,20.8,0.00,West,272,17.0,17.0,98,0.00,SCT,SCT,0.01,WeatherDisplay:10.37,2013-02-09 15:25:00,
2013-02-09 10:31:00,21.3,20.8,0.00,WNW,299,14.0,14.0,98,0.00,SCT,SCT,0.01,WeatherDisplay:10.37,2013-02-09 15:31:00,
2013-02-09 10:36:00,21.2,20.7,0.00,NNW,330,20.7,20.7,98,0.00,SCT,SCT,0.01,WeatherDisplay:10.37,2013-02-09 15:36:00,
2013-02-09 10:41:00,21.3,20.6,0.00,NNW,328,15.0,15.0,97,0.00,SCT,SCT,0.01,WeatherDisplay:10.37,2013-02-09 15:41:00,
2013-02-09 10:46:00,21.2,20.5,0.00,NNE,28,19.6,19.6,97,0.00,SCT,SCT,0.01,WeatherDisplay:10.37,2013-02-09 15:46:00,
2013-02-09 10:51:00,21.3,20.6,0.00,NW,306,9.3,9.3,97,0.00,SCT,SCT,0.01,WeatherDisplay:10.37,2013-02-09 15:51:00,
2013-02-09 10:56:00,21.4,20.7,0.00,NW,306,13.8,13.8,97,0.00,SCT,SCT,0.01,WeatherDisplay:10.37,2013-02-09 15:56:00,
2013-02-09 11:01:00,21.4,20.7,0.00,WNW,288,16.1,16.1,97,0.00,BKN,BKN,0.01,WeatherDisplay:10.37,2013-02-09 16:01:00,
2013-02-09 11:07:00,21.5,20.8,0.00,WSW,251,13.0,13.0,97,0.00,BKN,BKN,0.01,WeatherDisplay:10.37,2013-02-09 16:07:00,
2013-02-09 11:12:00,21.5,20.5,0.00,WNW,285,13.9,13.9,96,0.00,BKN,BKN,0.01,WeatherDisplay:10.37,2013-02-09 16:12:00,
2013-02-09 11:17:00,21.6,20.6,0.00,NNW,342,11.5,11.5,96,0.00,BKN,BKN,0.01,WeatherDisplay:10.37,2013-02-09 16:17:00,
2013-02-09 11:22:00,21.7,20.7,0.00,WNW,291,15.0,15.0,96,0.00,BKN,BKN,0.01,WeatherDisplay:10.37,2013-02-09 16:22:00,
2013-02-09 11:28:00,21.8,20.8,0.00,NW,319,12.7,12.7,96,0.00,BKN,BKN,0.01,WeatherDisplay:10.37,2013-02-09 16:28:00,
2013-02-09 11:33:00,21.9,20.9,0.00,WSW,258,20.7,20.7,96,0.00,BKN,BKN,0.01,WeatherDisplay:10.37,2013-02-09 16:33:00,
2013-02-09 11:38:00,22.0,21.0,0.00,North,360,15.0,15.0,96,0.00,BKN,BKN,0.01,WeatherDisplay:10.37,2013-02-09 16:38:00,
2013-02-09 11:43:00,22.1,20.9,0.00,North,360,13.8,13.8,95,0.00,BKN,BKN,0.01,WeatherDisplay:10.37,2013-02-09 16:43:00,
2013-02-09 11:48:00,22.2,21.0,0.00,WNW,289,15.0,15.0,95,0.00,BKN,BKN,0.01,WeatherDisplay:10.37,2013-02-09 16:48:00,
2013-02-09 11:53:00,22.3,21.1,0.00,WNW,302,6.9,6.9,95,0.00,BKN,BKN,0.01,WeatherDisplay:10.37,2013-02-09 16:53:00,
2013-02-09 11:58:00,22.3,21.1,0.00,NNW,342,15.0,15.0,95,0.00,BKN,BKN,0.01,WeatherDisplay:10.37,2013-02-09 16:58:00,
2013-02-09 12:03:00,22.4,20.9,0.00,North,360,18.4,18.4,94,0.00,BKN,BKN,0.01,WeatherDisplay:10.37,2013-02-09 17:03:00,
2013-02-09 12:09:00,22.5,21.0,0.00,North,360,15.3,15.3,94,0.00,BKN,BKN,0.01,WeatherDisplay:10.37,2013-02-09 17:09:00,
2013-02-09 12:14:00,22.6,21.1,0.00,WNW,289,12.7,12.7,94,0.00,BKN,BKN,0.01,WeatherDisplay:10.37,2013-02-09 17:14:00,
2013-02-09 12:19:00,22.7,21.2,0.00,WNW,292,16.1,16.1,94,0.00,BKN,BKN,0.01,WeatherDisplay:10.37,2013-02-09 17:19:00,
2013-02-09 12:24:00,22.8,21.1,0.00,NW,316,11.5,11.5,93,0.00,BKN,BKN,0.01,WeatherDisplay:10.37,2013-02-09 17:24:00,
2013-02-09 12:29:00,23.0,21.3,0.00,West,278,18.4,18.4,93,0.00,BKN,BKN,0.01,WeatherDisplay:10.37,2013-02-09 17:29:00,
2013-02-09 12:34:00,23.1,21.4,0.00,WNW,285,16.4,16.4,93,0.00,BKN,BKN,0.01,WeatherDisplay:10.37,2013-02-09 17:34:00,
2013-02-09 12:39:00,23.4,21.4,0.00,NNW,342,18.4,18.4,92,0.00,BKN,BKN,0.01,WeatherDisplay:10.37,2013-02-09 17:39:00,
2013-02-09 12:45:00,23.4,21.4,0.00,West,260,14.4,14.4,92,0.00,BKN,BKN,0.01,WeatherDisplay:10.37,2013-02-09 17:45:00,
2013-02-09 12:50:00,23.5,21.5,0.00,WNW,295,17.3,17.3,92,0.00,BKN,BKN,0.01,WeatherDisplay:10.37,2013-02-09 17:50:00,
2013-02-09 12:55:00,23.6,21.4,0.00,WSW,257,18.4,18.4,91,0.00,BKN,BKN,0.01,WeatherDisplay:10.37,2013-02-09 17:55:00,
2013-02-09 13:00:00,23.6,21.4,0.00,North,356,19.6,19.6,91,0.00,BKN,BKN,0.01,WeatherDisplay:10.37,2013-02-09 18:00:00,
2013-02-09 13:05:00,23.6,21.4,0.00,WNW,296,18.4,18.4,91,0.00,BKN,BKN,0.01,WeatherDisplay:10.37,2013-02-09 18:05:00,
2013-02-09 13:10:00,23.8,21.3,0.00,WNW,296,13.8,13.8,90,0.00,BKN,BKN,0.01,WeatherDisplay:10.37,2013-02-09 18:10:00,
2013-02-09 13:15:00,23.9,21.4,0.00,WNW,296,10.0,22.0,90,0.00,BKN,BKN,0.01,WeatherDisplay:10.37,2013-02-09 18:15:00,
2013-02-09 13:20:00,24.0,21.5,0.00,NW,326,12.7,12.7,90,0.00,BKN,BKN,0.01,WeatherDisplay:10.37,2013-02-09 18:20:00,
2013-02-09 13:26:00,24.0,21.5,0.00,NNW,328,17.3,17.3,90,0.00,BKN,BKN,0.01,WeatherDisplay:10.37,2013-02-09 18:26:00,
2013-02-09 13:31:00,24.1,21.6,0.00,NW,315,15.0,15.0,90,0.00,BKN,BKN,0.01,WeatherDisplay:10.37,2013-02-09 18:31:00,
2013-02-09 13:36:00,24.1,21.3,0.00,WNW,291,11.5,11.5,89,0.00,BKN,BKN,0.01,WeatherDisplay:10.37,2013-02-09 18:36:00,
2013-02-09 13:41:00,24.0,21.2,0.00,WSW,256,13.2,13.2,89,0.00,BKN,BKN,0.01,WeatherDisplay:10.37,2013-02-09 18:41:00,
2013-02-09 13:46:00,24.0,21.2,0.00,West,261,17.3,17.3,89,0.00,BKN,BKN,0.01,WeatherDisplay:10.37,2013-02-09 18:46:00,
2013-02-09 13:51:00,24.0,21.0,0.00,West,277,16.1,16.1,88,0.00,BKN,BKN,0.01,WeatherDisplay:10.37,2013-02-09 18:51:00,
2013-02-09 13:57:00,24.1,21.3,0.00,NW,318,9.2,9.2,89,0.00,BKN,BKN,0.01,WeatherDisplay:10.37,2013-02-09 18:57:00,
2013-02-09 14:02:00,24.2,21.2,0.00,NNE,14,20.7,20.7,88,0.00,BKN,BKN,0.01,WeatherDisplay:10.37,2013-02-09 19:02:00,
2013-02-09 14:07:00,24.1,21.1,0.00,West,268,17.7,17.7,88,0.00,BKN,BKN,0.01,WeatherDisplay:10.37,2013-02-09 19:07:00,
2013-02-09 14:12:00,24.2,21.2,0.00,NW,308,17.3,17.3,88,0.00,BKN,BKN,0.01,WeatherDisplay:10.37,2013-02-09 19:12:00,
2013-02-09 14:17:00,24.2,21.2,0.00,West,280,16.1,16.1,88,0.00,BKN,BKN,0.01,WeatherDisplay:10.37,2013-02-09 19:17:00,
2013-02-09 14:22:00,24.3,21.3,0.00,NW,308,9.2,9.2,88,0.00,BKN,BKN,0.01,WeatherDisplay:10.37,2013-02-09 19:22:00,
2013-02-09 14:27:00,24.3,21.3,0.00,NW,308,10.4,10.7,88,0.00,BKN,BKN,0.01,WeatherDisplay:10.37,2013-02-09 19:27:00,
2013-02-09 14:32:00,24.3,21.3,0.00,West,271,11.5,11.5,88,0.00,BKN,BKN,0.01,WeatherDisplay:10.37,2013-02-09 19:32:00,
2013-02-09 14:38:00,24.4,21.1,0.00,NW,320,9.2,9.2,87,0.00,BKN,BKN,0.01,WeatherDisplay:10.37,2013-02-09 19:38:00,
2013-02-09 14:43:00,24.6,21.6,0.00,WSW,257,13.8,13.8,88,0.00,BKN,BKN,0.01,WeatherDisplay:10.37,2013-02-09 19:43:00,
2013-02-09 14:48:00,24.8,21.5,0.00,NNW,333,18.4,18.4,87,0.00,BKN,BKN,0.01,WeatherDisplay:10.37,2013-02-09 19:48:00,
2013-02-09 14:53:00,24.8,21.5,0.00,West,268,15.0,15.0,87,0.00,BKN,BKN,0.01,WeatherDisplay:10.37,2013-02-09 19:53:00,
2013-02-09 14:58:00,24.8,21.5,0.00,NW,308,15.0,15.0,87,0.00,BKN,BKN,0.01,WeatherDisplay:10.37,2013-02-09 19:58:00,
2013-02-09 15:03:00,24.9,21.3,0.00,WNW,302,9.2,9.2,86,0.00,CLR,CLR,0.01,WeatherDisplay:10.37,2013-02-09 20:03:00,
2013-02-09 15:08:00,25.0,21.4,0.00,NW,315,16.1,16.1,86,0.00,CLR,CLR,0.01,WeatherDisplay:10.37,2013-02-09 20:08:00,
2013-02-09 15:14:00,25.0,21.1,0.00,WNW,299,16.1,16.1,85,0.00,CLR,CLR,0.01,WeatherDisplay:10.37,2013-02-09 20:14:00,
2013-02-09 15:19:00,25.0,21.1,0.00,NNW,343,15.0,15.0,85,0.00,CLR,CLR,0.01,WeatherDisplay:10.37,2013-02-09 20:19:00,
2013-02-09 15:24:00,25.0,21.1,0.00,WNW,285,11.5,11.5,85,0.00,CLR,CLR,0.01,WeatherDisplay:10.37,2013-02-09 20:24:00,
2013-02-09 15:29:00,25.2,21.3,0.00,NW,318,16.1,16.1,85,0.00,CLR,CLR,0.01,WeatherDisplay:10.37,2013-02-09 20:29:00,
2013-02-09 15:34:00,25.2,21.0,0.00,NW,308,16.1,16.1,84,0.00,CLR,CLR,0.01,WeatherDisplay:10.37,2013-02-09 20:34:00,
2013-02-09 15:39:00,25.2,21.0,0.00,NW,311,17.3,17.3,84,0.00,CLR,CLR,0.01,WeatherDisplay:10.37,2013-02-09 20:39:00,
2013-02-09 15:44:00,25.1,20.9,0.00,North,360,11.5,11.5,84,0.00,CLR,CLR,0.01,WeatherDisplay:10.37,2013-02-09 20:44:00,
2013-02-09 15:49:00,25.0,20.6,0.00,NW,312,13.8,13.8,83,0.00,CLR,CLR,0.01,WeatherDisplay:10.37,2013-02-09 20:49:00,
2013-02-09 15:55:00,25.1,20.7,0.00,WNW,298,8.1,8.1,83,0.00,CLR,CLR,0.01,WeatherDisplay:10.37,2013-02-09 20:55:00,
2013-02-09 16:00:00,25.1,20.7,0.00,NNW,344,19.6,19.6,83,0.00,CLR,CLR,0.01,WeatherDisplay:10.37,2013-02-09 21:00:00,
2013-02-09 16:05:00,25.2,20.8,0.00,North,359,10.4,10.4,83,0.00,SCT,SCT,0.01,WeatherDisplay:10.37,2013-02-09 21:05:00,
2013-02-09 16:10:00,25.2,20.8,0.00,North,359,9.2,9.2,83,0.00,SCT,SCT,0.01,WeatherDisplay:10.37,2013-02-09 21:10:00,
2013-02-09 16:15:00,25.2,20.8,0.00,NNW,340,12.7,12.7,83,0.00,SCT,SCT,0.01,WeatherDisplay:10.37,2013-02-09 21:15:00,
2013-02-09 16:20:00,25.3,20.9,0.00,NNW,332,11.5,11.5,83,0.00,SCT,SCT,0.01,WeatherDisplay:10.37,2013-02-09 21:20:00,
2013-02-09 16:26:00,25.2,20.8,0.00,NW,309,12.7,12.7,83,0.00,SCT,SCT,0.01,WeatherDisplay:10.37,2013-02-09 21:26:00,
2013-02-09 16:31:00,25.3,20.9,0.00,WNW,287,13.8,13.8,83,0.00,SCT,SCT,0.01,WeatherDisplay:10.37,2013-02-09 21:31:00,
2013-02-09 16:36:00,25.1,20.7,0.00,NNW,335,17.3,17.3,83,0.00,SCT,SCT,0.01,WeatherDisplay:10.37,2013-02-09 21:36:00,
2013-02-09 16:41:00,25.1,20.7,0.00,NNW,330,13.8,13.8,83,0.00,SCT,SCT,0.01,WeatherDisplay:10.37,2013-02-09 21:41:00,
2013-02-09 16:46:00,25.1,20.7,0.00,WNW,291,17.3,17.3,83,0.00,SCT,SCT,0.01,WeatherDisplay:10.37,2013-02-09 21:46:00,
2013-02-09 16:52:00,24.9,20.5,0.00,North,8,16.1,16.1,83,0.00,SCT,SCT,0.01,WeatherDisplay:10.37,2013-02-09 21:52:00,
2013-02-09 16:57:00,24.8,20.4,0.00,West,260,13.9,13.9,83,0.00,SCT,SCT,0.01,WeatherDisplay:10.37,2013-02-09 21:57:00,
2013-02-09 17:02:00,24.7,20.3,0.00,NNW,347,15.0,15.0,83,0.00,CLR,CLR,0.01,WeatherDisplay:10.37,2013-02-09 22:02:00,
2013-02-09 17:07:00,24.5,20.1,0.00,NW,309,23.0,23.0,83,0.00,CLR,CLR,0.01,WeatherDisplay:10.37,2013-02-09 22:07:00,
2013-02-09 17:12:00,24.5,19.8,0.00,WNW,289,12.7,12.7,82,0.00,CLR,CLR,0.01,WeatherDisplay:10.37,2013-02-09 22:12:00,
2013-02-09 17:17:00,24.3,19.6,0.00,WNW,302,9.9,9.9,82,0.00,CLR,CLR,0.01,WeatherDisplay:10.37,2013-02-09 22:17:00,
2013-02-09 17:23:00,24.2,19.5,0.00,WNW,285,15.2,15.2,82,0.00,CLR,CLR,0.01,WeatherDisplay:10.37,2013-02-09 22:23:00,
2013-02-09 17:28:00,24.1,19.4,0.00,WNW,298,11.5,11.5,82,0.00,CLR,CLR,0.01,WeatherDisplay:10.37,2013-02-09 22:28:00,
2013-02-09 17:33:00,23.9,19.2,0.00,NW,305,10.4,10.4,82,0.00,CLR,CLR,0.01,WeatherDisplay:10.37,2013-02-09 22:33:00,
2013-02-09 17:38:00,23.8,19.1,0.00,WNW,295,13.8,13.8,82,0.00,CLR,CLR,0.01,WeatherDisplay:10.37,2013-02-09 22:38:00,
2013-02-09 17:44:00,23.7,19.0,0.00,NW,308,12.7,12.7,82,0.00,CLR,CLR,0.01,WeatherDisplay:10.37,2013-02-09 22:44:00,
2013-02-09 17:49:00,23.6,18.9,0.00,WSW,244,6.9,6.9,82,0.00,CLR,CLR,0.01,WeatherDisplay:10.37,2013-02-09 22:49:00,
2013-02-09 17:54:00,23.4,18.7,0.00,WNW,295,9.2,9.2,82,0.00,CLR,CLR,0.01,WeatherDisplay:10.37,2013-02-09 22:54:00,
2013-02-09 17:59:00,23.2,18.5,0.00,West,260,9.2,9.2,82,0.00,CLR,CLR,0.01,WeatherDisplay:10.37,2013-02-09 22:59:00,
2013-02-09 18:04:00,23.0,18.3,0.00,West,281,9.8,9.8,82,0.00,CLR,CLR,0.01,WeatherDisplay:10.37,2013-02-09 23:04:00,
2013-02-09 18:09:00,22.6,17.9,0.00,WNW,285,12.7,12.7,82,0.00,CLR,CLR,0.01,WeatherDisplay:10.37,2013-02-09 23:09:00,
2013-02-09 18:15:00,22.4,17.5,0.00,NW,316,15.0,15.0,81,0.00,CLR,CLR,0.01,WeatherDisplay:10.37,2013-02-09 23:15:00,
2013-02-09 18:20:00,22.2,17.5,0.00,WSW,258,16.8,16.8,82,0.00,CLR,CLR,0.01,WeatherDisplay:10.37,2013-02-09 23:20:00,
2013-02-09 18:25:00,22.0,17.1,0.00,West,264,12.9,12.9,81,0.00,CLR,CLR,0.01,WeatherDisplay:10.37,2013-02-09 23:25:00,
2013-02-09 18:30:00,21.7,16.8,0.00,West,260,12.7,12.7,81,0.00,CLR,CLR,0.01,WeatherDisplay:10.37,2013-02-09 23:30:00,
2013-02-09 18:35:00,21.5,16.6,0.00,WSW,257,16.1,16.1,81,0.00,CLR,CLR,0.01,WeatherDisplay:10.37,2013-02-09 23:35:00,
2013-02-09 18:40:00,21.4,16.5,0.00,West,261,19.6,19.6,81,0.00,CLR,CLR,0.01,WeatherDisplay:10.37,2013-02-09 23:40:00,
2013-02-09 18:45:00,21.2,16.3,0.00,NW,322,13.8,13.8,81,0.00,CLR,CLR,0.01,WeatherDisplay:10.37,2013-02-09 23:45:00,
2013-02-09 18:51:00,21.1,16.2,0.00,WSW,256,11.5,11.5,81,0.00,CLR,CLR,0.01,WeatherDisplay:10.37,2013-02-09 23:51:00,
2013-02-09 18:56:00,20.9,16.0,0.00,WNW,282,16.1,16.1,81,0.00,CLR,CLR,0.01,WeatherDisplay:10.37,2013-02-09 23:56:00,
2013-02-09 19:01:00,20.8,15.9,0.00,West,281,12.7,12.7,81,0.00,CLR,CLR,0.01,WeatherDisplay:10.37,2013-02-10 00:01:00,
2013-02-09 19:06:00,20.7,15.8,0.00,NW,304,10.4,10.4,81,0.00,CLR,CLR,0.01,WeatherDisplay:10.37,2013-02-10 00:06:00,
2013-02-09 19:11:00,20.5,15.6,0.00,West,275,13.8,13.8,81,0.00,CLR,CLR,0.01,WeatherDisplay:10.37,2013-02-10 00:11:00,
2013-02-09 19:16:00,20.4,15.5,0.00,West,261,8.1,8.1,81,0.00,CLR,CLR,0.01,WeatherDisplay:10.37,2013-02-10 00:16:00,
2013-02-09 19:21:00,20.3,15.4,0.00,WNW,298,8.1,8.1,81,0.00,CLR,CLR,0.01,WeatherDisplay:10.37,2013-02-10 00:21:00,
2013-02-09 19:26:00,20.2,15.3,0.00,NW,313,12.7,12.7,81,0.00,CLR,CLR,0.01,WeatherDisplay:10.37,2013-02-10 00:26:00,
2013-02-09 19:31:00,20.0,15.1,0.00,West,281,8.1,8.1,81,0.00,CLR,CLR,0.01,WeatherDisplay:10.37,2013-02-10 00:31:00,
2013-02-09 19:37:00,19.8,14.9,0.00,North,11,9.2,9.2,81,0.00,CLR,CLR,0.01,WeatherDisplay:10.37,2013-02-10 00:37:00,
2013-02-09 19:42:00,19.7,14.8,0.00,WNW,284,9.2,9.2,81,0.00,CLR,CLR,0.01,WeatherDisplay:10.37,2013-02-10 00:42:00,
2013-02-09 19:47:00,19.5,14.6,0.00,WNW,296,10.4,10.4,81,0.00,CLR,CLR,0.01,WeatherDisplay:10.37,2013-02-10 00:47:00,
2013-02-09 19:52:00,19.4,14.5,0.00,NW,320,8.1,8.1,81,0.00,CLR,CLR,0.01,WeatherDisplay:10.37,2013-02-10 00:52:00,
2013-02-09 19:58:00,19.3,14.7,0.00,NW,305,10.4,10.4,82,0.00,CLR,CLR,0.01,WeatherDisplay:10.37,2013-02-10 00:58:00,
2013-02-09 20:03:00,19.2,14.3,0.00,West,271,6.9,6.9,81,0.00,CLR,CLR,0.01,WeatherDisplay:10.37,2013-02-10 01:03:00,
2013-02-09 20:08:00,19.0,14.1,0.00,West,263,15.0,15.0,81,0.00,CLR,CLR,0.01,WeatherDisplay:10.37,2013-02-10 01:08:00,
2013-02-09 20:13:00,18.9,14.0,0.00,WNW,291,9.2,9.2,81,0.00,CLR,CLR,0.01,WeatherDisplay:10.37,2013-02-10 01:13:00,
2013-02-09 20:18:00,18.8,14.2,0.00,NNW,344,11.5,11.5,82,0.00,CLR,CLR,0.01,WeatherDisplay:10.37,2013-02-10 01:18:00,
2013-02-09 20:23:00,18.7,13.8,0.00,WNW,282,15.0,15.0,81,0.00,CLR,CLR,0.01,WeatherDisplay:10.37,2013-02-10 01:23:00,
2013-02-09 20:29:00,18.7,13.8,0.00,NW,312,9.2,9.2,81,0.00,CLR,CLR,0.01,WeatherDisplay:10.37,2013-02-10 01:29:00,
2013-02-09 20:34:00,18.7,13.8,0.00,NW,308,6.9,6.9,81,0.00,CLR,CLR,0.01,WeatherDisplay:10.37,2013-02-10 01:34:00,
2013-02-09 20:40:00,18.6,13.7,0.00,WNW,301,8.1,8.1,81,0.00,CLR,CLR,0.01,WeatherDisplay:10.37,2013-02-10 01:40:00,
2013-02-09 20:45:00,18.4,13.5,0.00,NW,304,9.2,9.2,81,0.00,CLR,CLR,0.01,WeatherDisplay:10.37,2013-02-10 01:45:00,
2013-02-09 20:50:00,18.2,13.3,0.00,WSW,253,7.0,7.0,81,0.00,CLR,CLR,0.01,WeatherDisplay:10.37,2013-02-10 01:50:00,
2013-02-09 20:55:00,18.2,13.6,0.00,West,261,8.5,8.5,82,0.00,CLR,CLR,0.01,WeatherDisplay:10.37,2013-02-10 01:55:00,
2013-02-09 21:00:00,18.0,13.4,0.00,NW,308,6.9,6.9,82,0.00,CLR,CLR,0.01,WeatherDisplay:10.37,2013-02-10 02:00:00,
2013-02-09 21:05:00,17.9,13.3,0.00,West,272,10.4,10.4,82,0.00,CLR,CLR,0.01,WeatherDisplay:10.37,2013-02-10 02:05:00,
2013-02-09 21:11:00,17.8,13.2,0.00,WNW,291,8.3,8.3,82,0.00,CLR,CLR,0.01,WeatherDisplay:10.37,2013-02-10 02:11:00,
2013-02-09 21:16:00,17.6,13.0,0.00,NW,309,12.7,12.7,82,0.00,CLR,CLR,0.01,WeatherDisplay:10.37,2013-02-10 02:16:00,
2013-02-09 21:21:00,17.5,12.7,0.00,West,263,7.3,7.3,81,0.00,CLR,CLR,0.01,WeatherDisplay:10.37,2013-02-10 02:21:00,
2013-02-09 21:26:00,17.4,12.6,0.00,WNW,299,8.2,8.2,81,0.00,CLR,CLR,0.01,WeatherDisplay:10.37,2013-02-10 02:26:00,
2013-02-09 21:31:00,17.4,12.6,0.00,WNW,295,9.2,9.2,81,0.00,CLR,CLR,0.01,WeatherDisplay:10.37,2013-02-10 02:31:00,
2013-02-09 21:36:00,17.2,12.4,0.00,West,277,9.1,9.1,81,0.00,CLR,CLR,0.01,WeatherDisplay:10.37,2013-02-10 02:36:00,
2013-02-09 21:41:00,17.1,12.3,0.00,West,267,8.1,8.1,81,0.00,CLR,CLR,0.01,WeatherDisplay:10.37,2013-02-10 02:41:00,
2013-02-09 21:47:00,17.0,12.5,0.00,NW,309,6.9,6.9,82,0.00,CLR,CLR,0.01,WeatherDisplay:10.37,2013-02-10 02:47:00,
2013-02-09 21:52:00,16.8,12.0,0.00,WNW,302,11.5,11.5,81,0.00,CLR,CLR,0.01,WeatherDisplay:10.37,2013-02-10 02:52:00,
2013-02-09 21:57:00,16.8,12.0,0.00,NW,322,8.1,8.1,81,0.00,CLR,CLR,0.01,WeatherDisplay:10.37,2013-02-10 02:57:00,
2013-02-09 22:02:00,16.8,12.0,0.00,WNW,301,6.9,6.9,81,0.00,CLR,CLR,0.01,WeatherDisplay:10.37,2013-02-10 03:02:00,
2013-02-09 22:08:00,16.7,11.9,0.00,NNW,329,6.9,6.9,81,0.00,CLR,CLR,0.01,WeatherDisplay:10.37,2013-02-10 03:08:00,
2013-02-09 22:13:00,16.6,11.8,0.00,NW,320,6.9,6.9,81,0.00,CLR,CLR,0.01,WeatherDisplay:10.37,2013-02-10 03:13:00,
2013-02-09 22:18:00,16.4,11.6,0.00,WNW,289,10.4,10.4,81,0.00,CLR,CLR,0.01,WeatherDisplay:10.37,2013-02-10 03:18:00,
2013-02-09 22:23:00,16.4,11.6,0.00,WNW,294,8.3,8.3,81,0.00,CLR,CLR,0.01,WeatherDisplay:10.37,2013-02-10 03:23:00,
2013-02-09 22:28:00,16.4,11.6,0.00,West,271,9.2,9.2,81,0.00,CLR,CLR,0.01,WeatherDisplay:10.37,2013-02-10 03:28:00,
2013-02-09 22:34:00,16.3,11.5,0.00,WNW,301,12.7,12.7,81,0.00,CLR,CLR,0.01,WeatherDisplay:10.37,2013-02-10 03:34:00,
2013-02-09 22:39:00,16.1,11.3,0.00,WNW,292,11.5,11.5,81,0.00,CLR,CLR,0.01,WeatherDisplay:10.37,2013-02-10 03:39:00,
2013-02-09 22:44:00,16.1,11.0,0.00,WNW,289,5.8,5.8,80,0.00,CLR,CLR,0.01,WeatherDisplay:10.37,2013-02-10 03:44:00,
2013-02-09 22:50:00,16.0,11.2,0.00,NW,308,8.1,8.1,81,0.00,CLR,CLR,0.01,WeatherDisplay:10.37,2013-02-10 03:50:00,
2013-02-09 22:55:00,15.9,11.1,0.00,West,264,10.6,10.6,81,0.00,CLR,CLR,0.01,WeatherDisplay:10.37,2013-02-10 03:55:00,
2013-02-09 23:00:00,15.9,10.8,0.00,NNW,335,6.9,6.9,80,0.00,CLR,CLR,0.01,WeatherDisplay:10.37,2013-02-10 04:00:00,
2013-02-09 23:05:00,15.8,10.7,0.00,WNW,301,10.4,10.4,80,0.00,CLR,CLR,0.01,WeatherDisplay:10.37,2013-02-10 04:05:00,
2013-02-09 23:10:00,15.8,10.7,0.00,West,270,9.2,9.2,80,0.00,CLR,CLR,0.01,WeatherDisplay:10.37,2013-02-10 04:10:00,
2013-02-09 23:16:00,15.7,10.6,0.00,WNW,296,9.2,9.2,80,0.00,CLR,CLR,0.01,WeatherDisplay:10.37,2013-02-10 04:16:00,
2013-02-09 23:21:00,15.7,10.6,0.00,West,281,6.1,6.1,80,0.00,CLR,CLR,0.01,WeatherDisplay:10.37,2013-02-10 04:21:00,
2013-02-09 23:26:00,15.6,10.5,0.00,WNW,301,6.9,6.9,80,0.00,CLR,CLR,0.01,WeatherDisplay:10.37,2013-02-10 04:26:00,
2013-02-09 23:31:00,15.6,10.5,0.00,West,280,10.0,10.0,80,0.00,CLR,CLR,0.01,WeatherDisplay:10.37,2013-02-10 04:31:00,
2013-02-09 23:36:00,15.5,10.4,0.00,West,271,8.1,8.1,80,0.00,CLR,CLR,0.01,WeatherDisplay:10.37,2013-02-10 04:36:00,
2013-02-09 23:41:00,15.6,10.5,0.00,NNW,329,6.9,6.9,80,0.00,CLR,CLR,0.01,WeatherDisplay:10.37,2013-02-10 04:41:00,
2013-02-09 23:47:00,15.5,10.4,0.00,WNW,287,9.8,9.8,80,0.00,CLR,CLR,0.01,WeatherDisplay:10.37,2013-02-10 04:47:00,
2013-02-09 23:52:00,15.6,10.5,0.00,WNW,288,10.4,10.4,80,0.00,CLR,CLR,0.01,WeatherDisplay:10.37,2013-02-10 04:52:00,
2013-02-09 23:57:00,15.5,10.1,0.00,NW,326,8.1,8.1,79,0.00,CLR,CLR,0.01,WeatherDisplay:10.37,2013-02-10 04:57:00,